METAR Data
IDs: Format: Raw Decoded Include TAF

Data at: 1448 UTC 22 Apr 2021

KEYW 221353Z 02010KT 10SM FEW042 BKN065 26/18 A3007 RMK AO2 SLP183 T02560178
KEYW 221253Z 02009KT 10SM BKN043 26/17 A3006 RMK AO2 SLP177 T02560172
KEYW 221153Z 03009KT 10SM BKN039 OVC060 24/17 A3004 RMK AO2 SLP172 T02440172 10250 20233 53011
KEYW 221053Z 01008KT 10SM OVC060 24/19 A3003 RMK AO2 SLP167 T02440189
KEYW 220953Z AUTO 36009KT 10SM FEW041 24/19 A3001 RMK AO2 SLP163 T02390194
KEYW 220853Z AUTO 35009KT 10SM SCT046 24/20 A3001 RMK AO2 SLP161 T02440200 55002
KEYW 220753Z AUTO 35005KT 10SM FEW017 BKN047 24/21 A3000 RMK AO2 SLP158 T02440206
KEYW 220653Z AUTO 02003KT 10SM CLR 24/21 A3000 RMK AO2 SLP158 T02390211
KEYW 220553Z AUTO 36004KT 10SM CLR 24/21 A3001 RMK AO2 SLP163 T02440211 10256 20244 58002
KEYW 220453Z AUTO 01003KT 10SM CLR 24/22 A3002 RMK AO2 SLP166 T02440217 402940244
KEYW 220353Z AUTO 35006KT 10SM BKN120 25/21 A3003 RMK AO2 SLP168 T02500211
KEYW 220253Z AUTO 01006KT 10SM BKN110 25/21 A3002 RMK AO2 SLP165 T02500211 50005
KEYW 220153Z AUTO 34008KT 10SM FEW120 26/21 A3002 RMK AO2 SLP167 T02560211
KEYW 220053Z AUTO 34009KT 10SM CLR 25/21 A3001 RMK AO2 SLP163 T02500211
KEYW 212353Z 35011KT 10SM SCT021 26/22 A3000 RMK AO2 SLP159 60000 T02560217 10283 20250 53006
KEYW 212300Z 33009G18KT 10SM FEW021 26/22 A2999 RMK AO2 T02560222
KEYW 212253Z 34011KT 10SM BKN026 26/22 A2999 RMK AO2 RAB2155E29 SLP154 P0000 T02560222
KEYW 212218Z 34011KT 10SM -RA FEW015 OVC025 25/22 A2998 RMK AO2 RAB2155 P0000 T02500217
KEYW 212153Z 34008KT 10SM FEW019 SCT110 26/23 A2999 RMK AO2 SLP154 T02610228
KEYW 212053Z 29006KT 10SM FEW015 OVC050 27/23 A2999 RMK AO2 SLP153 T02720233 56013
KEYW 211953Z 24008KT 10SM FEW030 OVC040 27/23 A2999 RMK AO2 SLP156 T02720228
KEYW 211853Z 21006KT 10SM FEW023 BKN030 BKN070 27/23 A3001 RMK AO2 SLP161 T02720228
KEYW 211753Z 25007KT 220V310 10SM FEW023 OVC030 28/23 A3002 RMK AO2 SLP166 T02780228 10294 20267 58003
KEYW 211739Z 30004KT 10SM SCT024 SCT030 29/23 A3003 RMK AO2 T02890233
KEYW 211715Z 28003KT 10SM BKN022 BKN030 28/23 A3003 RMK AO2 T02830228
KEYW 211653Z 31004KT 10SM FEW024 SCT029 BKN035 28/23 A3004 RMK AO2 SLP172 T02830228
KEYW 211619Z 29007KT 10SM FEW026 OVC035 29/23 A3004 RMK AO2 T02890228
KEYW 211610Z 30006KT 10SM BKN026 OVC035 28/23 A3004 RMK AO2 T02830228
KEYW 211553Z 29006KT 10SM FEW019 SCT026 28/23 A3004 RMK AO2 SLP172 T02830228
KEYW 211453Z 00000KT 10SM SCT022 SCT028 28/23 A3003 RMK AO2 SLP169 T02830228 53013
KEYW 211410Z 31005KT 10SM SCT022 SCT028 28/23 A3002 RMK AO2 T02830228
KEYW 211409Z 30005KT 10SM SCT022 BKN028 OVC035 28/23 A3002 RMK AO2 T02830228
KEYW 211400Z 31006KT 10SM BKN022 OVC033 28/23 A3001 RMK AO2 T02830233
KEYW 211353Z 30005KT 9SM SCT027 28/23 A3001 RMK AO2 SLP161 T02780228
KEYW 211301Z 26005KT 8SM SCT027 27/23 A3001 RMK AO2 T02670233
KEYW 211253Z 24005KT 9SM OVC027 27/23 A3001 RMK AO2 SLP161 T02670233
KEYW 211153Z 24005KT 8SM BKN028 27/23 A2999 RMK AO2 SLP156 T02670233 10267 20261 53008
KEYW 211115Z 23004KT 8SM BKN028 OVC034 27/23 A2999 RMK AO2 T02670233
KEYW 211053Z 24005KT 9SM FEW031 BKN035 27/23 A2998 RMK AO2 SLP152 T02670233
KEYW 210953Z 24005KT 8SM FEW027 BKN033 26/23 A2998 RMK AO2 SLP151 T02610233
KEYW 210853Z 26005KT 9SM SCT018 OVC034 27/23 A2997 RMK AO2 SLP148 T02670233 50004
KEYW 210824Z 25003KT 9SM BKN020 OVC030 27/24 A2997 RMK AO2 T02670239
KEYW 210811Z 26005KT 9SM FEW017 SCT026 OVC030 27/24 A2997 RMK AO2 T02670239
KEYW 210753Z 26005KT 8SM SCT018 BKN026 OVC033 27/24 A2998 RMK AO2 SLP150 T02670239
KEYW 210702Z 21004KT 8SM SCT012 BKN020 27/24 A2996 RMK AO2 T02670239
KEYW 210653Z 00000KT 8SM BKN012 BKN020 26/24 A2996 RMK AO2 SLP145 T02610239
KEYW 210634Z 00000KT 8SM SCT012 BKN020 27/24 A2996 RMK AO2 T02670239
KEYW 210553Z 20011KT 9SM FEW021 27/24 A2996 RMK AO2 SLP144 T02670239 10272 20261 55001
KEYW 210453Z 19011KT 10SM CLR 27/23 A2995 RMK AO2 SLP140 T02670228 402720233
KEYW 210353Z 20015G24KT 10SM CLR 27/22 A2995 RMK AO2 PK WND 20026/0318 SLP140 T02670222
KEYW 210253Z 21015KT 10SM CLR 27/23 A2996 RMK AO2 PK WND 20026/0226 SLP145 T02670228 53013